createdAt,value
2023-03-18T00:00:10.052Z,22.34
2023-03-18T00:02:11.614Z,22.31
2023-03-18T00:04:12.989Z,22.31
2023-03-18T00:06:14.292Z,22.29
2023-03-18T00:08:16.768Z,22.28
2023-03-18T00:10:18.905Z,22.28
2023-03-18T00:12:20.269Z,22.29
2023-03-18T00:14:22.481Z,22.30
2023-03-18T00:16:23.871Z,22.28
2023-03-18T00:18:25.676Z,22.27
2023-03-18T00:20:38.643Z,22.36
2023-03-18T00:22:40.121Z,22.40
2023-03-18T00:24:41.463Z,19.55
2023-03-18T00:26:43.672Z,18.72
2023-03-18T00:28:44.999Z,19.48
2023-03-18T00:30:47.668Z,20.55
2023-03-18T00:32:49.068Z,21.06
2023-03-18T00:34:50.758Z,21.25
2023-03-18T00:36:57.028Z,21.34
2023-03-18T00:38:59.615Z,21.36
2023-03-18T00:41:15.767Z,21.42
2023-03-18T00:43:17.418Z,20.73
2023-03-18T00:45:18.753Z,21.54
2023-03-18T00:47:21.159Z,21.59
2023-03-18T00:49:22.481Z,21.66
2023-03-18T00:51:23.794Z,21.70
2023-03-18T00:53:26.211Z,21.77
2023-03-18T00:55:27.542Z,21.82
2023-03-18T00:57:29.470Z,21.88
2023-03-18T00:59:30.773Z,21.91
2023-03-18T01:01:32.110Z,21.91
2023-03-18T01:03:33.969Z,21.94
2023-03-18T01:05:35.847Z,21.95
2023-03-18T01:07:37.809Z,21.93
2023-03-18T01:09:41.918Z,21.95
2023-03-18T01:11:43.211Z,21.93
2023-03-18T01:13:44.517Z,21.93
2023-03-18T01:15:45.866Z,21.92
2023-03-18T01:17:47.169Z,21.89
2023-03-18T01:19:49.963Z,21.85
2023-03-18T01:21:51.746Z,21.80
2023-03-18T01:23:53.367Z,21.76
2023-03-18T01:25:55.995Z,21.72
2023-03-18T01:27:58.252Z,21.69
2023-03-18T01:29:59.843Z,21.64
2023-03-18T01:32:02.290Z,21.60
2023-03-18T01:34:03.650Z,21.55
2023-03-18T01:36:05.123Z,21.52
2023-03-18T01:38:06.537Z,21.51
2023-03-18T01:40:07.831Z,21.50
2023-03-18T01:42:09.157Z,21.49
2023-03-18T01:44:11.071Z,21.46
2023-03-18T01:46:13.513Z,21.46
2023-03-18T01:48:14.819Z,21.43
2023-03-18T01:50:16.167Z,21.43
2023-03-18T01:52:18.212Z,21.44
2023-03-18T01:54:19.516Z,21.39
2023-03-18T01:56:20.986Z,21.37
2023-03-18T01:58:22.330Z,21.41
2023-03-18T02:00:23.658Z,21.41
2023-03-18T02:02:25.317Z,21.39
2023-03-18T02:04:26.620Z,21.39
2023-03-18T02:06:27.910Z,21.36
2023-03-18T02:08:29.219Z,21.36
2023-03-18T02:10:31.237Z,21.35
2023-03-18T02:12:33.445Z,21.35
2023-03-18T02:14:34.768Z,21.35
2023-03-18T02:16:36.203Z,21.34
2023-03-18T02:18:38.858Z,21.37
2023-03-18T02:20:40.684Z,21.41
2023-03-18T02:22:43.384Z,21.41
2023-03-18T02:24:44.696Z,21.43
2023-03-18T02:26:45.989Z,21.45
2023-03-18T02:28:47.409Z,21.48
2023-03-18T02:30:48.831Z,21.52
2023-03-18T02:32:50.837Z,21.63
2023-03-18T02:34:52.200Z,21.62
2023-03-18T02:36:53.644Z,21.67
2023-03-18T02:38:54.944Z,21.70
2023-03-18T02:40:56.299Z,21.71
2023-03-18T02:42:57.584Z,21.72
2023-03-18T02:44:58.986Z,21.71
2023-03-18T02:47:00.728Z,21.73
2023-03-18T02:49:02.212Z,21.71
2023-03-18T02:51:03.521Z,21.68
2023-03-18T02:53:04.807Z,21.66
2023-03-18T02:55:07.168Z,21.63
2023-03-18T02:57:08.920Z,21.60
2023-03-18T02:59:10.270Z,21.58
2023-03-18T03:01:11.767Z,21.57
2023-03-18T03:03:13.192Z,21.58
2023-03-18T03:05:15.372Z,21.55
2023-03-18T03:07:16.683Z,21.53
2023-03-18T03:09:18.100Z,21.51
2023-03-18T03:11:19.635Z,21.51
2023-03-18T03:13:21.021Z,21.51
2023-03-18T03:15:22.330Z,21.49
2023-03-18T03:17:24.299Z,21.48
2023-03-18T03:19:25.898Z,21.47
2023-03-18T03:21:27.772Z,21.45
2023-03-18T03:23:29.372Z,21.45
2023-03-18T03:25:30.913Z,21.46
2023-03-18T03:27:32.918Z,21.45
2023-03-18T03:29:34.486Z,21.45
2023-03-18T03:31:35.811Z,21.45
2023-03-18T03:33:37.596Z,21.45
2023-03-18T03:35:39.025Z,21.44
2023-03-18T03:37:40.735Z,21.46
2023-03-18T03:39:42.033Z,21.47
2023-03-18T03:41:43.332Z,21.53
2023-03-18T03:43:44.953Z,21.54
2023-03-18T03:45:46.306Z,21.57
2023-03-18T03:47:47.806Z,21.55
2023-03-18T03:49:49.113Z,21.57
2023-03-18T03:51:50.539Z,21.60
2023-03-18T03:53:51.869Z,21.63
2023-03-18T03:55:53.168Z,21.63
2023-03-18T03:57:54.511Z,21.65
2023-03-18T03:59:56.419Z,21.67
2023-03-18T04:01:57.712Z,21.70
2023-03-18T04:04:00.774Z,21.73
2023-03-18T04:06:02.116Z,21.73
2023-03-18T04:08:03.471Z,21.72
2023-03-18T04:10:04.779Z,21.73
2023-03-18T04:12:06.075Z,21.71
2023-03-18T04:14:08.107Z,21.72
2023-03-18T04:16:09.667Z,21.71
2023-03-18T04:18:11.831Z,21.59
2023-03-18T04:20:13.176Z,21.54
2023-03-18T04:22:14.472Z,21.55
2023-03-18T04:24:15.763Z,21.54
2023-03-18T04:26:17.130Z,21.54
2023-03-18T04:28:18.473Z,21.54
2023-03-18T04:30:23.302Z,21.54
2023-03-18T04:32:24.665Z,21.52
2023-03-18T04:34:26.011Z,21.49
2023-03-18T04:36:28.349Z,21.49
2023-03-18T04:38:29.765Z,21.47
2023-03-18T04:40:31.440Z,21.46
2023-03-18T04:42:32.834Z,21.45
2023-03-18T04:44:34.169Z,21.45
2023-03-18T04:46:35.550Z,21.44
2023-03-18T04:48:37.474Z,21.46
2023-03-18T04:50:38.782Z,21.46
2023-03-18T04:52:40.090Z,21.43
2023-03-18T04:54:42.810Z,21.42
2023-03-18T04:56:44.580Z,21.44
2023-03-18T04:58:46.085Z,20.57
2023-03-18T05:00:47.535Z,21.47
2023-03-18T05:02:48.858Z,21.47
2023-03-18T05:04:50.320Z,21.48
2023-03-18T05:06:52.194Z,21.50
2023-03-18T05:08:53.492Z,21.52
2023-03-18T05:10:54.795Z,21.55
2023-03-18T05:12:56.091Z,21.58
2023-03-18T05:14:57.393Z,21.60
2023-03-18T05:16:58.752Z,21.61
2023-03-18T05:19:00.097Z,21.63
2023-03-18T05:21:01.482Z,21.63
2023-03-18T05:23:03.104Z,21.65
2023-03-18T05:25:05.493Z,21.64
2023-03-18T05:27:06.879Z,21.67
2023-03-18T05:29:09.197Z,21.68
2023-03-18T05:31:10.512Z,21.69
2023-03-18T05:33:12.062Z,21.71
2023-03-18T05:35:13.581Z,21.72
2023-03-18T05:37:15.447Z,21.71
2023-03-18T05:39:16.853Z,21.69
2023-03-18T05:41:18.299Z,21.72
2023-03-18T05:43:20.140Z,21.70
2023-03-18T05:45:21.864Z,21.66
2023-03-18T05:47:23.182Z,21.64
2023-03-18T05:49:24.584Z,21.62
2023-03-18T05:51:26.548Z,21.60
2023-03-18T05:53:27.920Z,21.62
2023-03-18T05:55:29.641Z,21.62
2023-03-18T05:57:31.151Z,21.61
2023-03-18T05:59:32.597Z,21.59
2023-03-18T06:01:34.144Z,21.59
2023-03-18T06:03:35.834Z,21.57
2023-03-18T06:05:37.216Z,21.54
2023-03-18T06:07:38.528Z,21.53
2023-03-18T06:09:39.875Z,21.52
2023-03-18T06:11:41.208Z,21.51
2023-03-18T06:13:43.428Z,21.50
2023-03-18T06:15:47.665Z,21.50
2023-03-18T06:17:50.099Z,21.56
2023-03-18T06:19:51.636Z,21.60
2023-03-18T06:21:53.160Z,21.59
2023-03-18T06:23:54.495Z,21.60
2023-03-18T06:25:56.141Z,21.59
2023-03-18T06:27:57.554Z,21.64
2023-03-18T06:30:02.785Z,21.64
2023-03-18T06:32:04.120Z,21.67
2023-03-18T06:34:05.512Z,21.69
2023-03-18T06:36:06.912Z,21.69
2023-03-18T06:38:10.699Z,21.70
2023-03-18T06:40:12.452Z,21.70
2023-03-18T06:42:13.919Z,21.70
2023-03-18T06:44:15.207Z,21.73
2023-03-18T06:46:16.510Z,21.72
2023-03-18T06:48:18.760Z,21.72
2023-03-18T06:50:20.789Z,21.71
2023-03-18T06:52:23.319Z,21.69
2023-03-18T06:54:25.533Z,21.73
2023-03-18T06:56:26.838Z,21.73
2023-03-18T06:58:28.167Z,21.72
2023-03-18T07:00:32.259Z,21.68
2023-03-18T07:02:33.753Z,21.68
2023-03-18T07:04:35.575Z,21.64
2023-03-18T07:06:37.591Z,21.62
2023-03-18T07:08:38.882Z,21.54
2023-03-18T07:10:43.424Z,21.50
2023-03-18T07:12:44.803Z,21.48
2023-03-18T07:14:47.035Z,21.42
2023-03-18T07:16:48.370Z,21.34
2023-03-18T07:18:49.669Z,21.29
2023-03-18T07:20:50.963Z,21.21
2023-03-18T07:22:52.511Z,21.19
2023-03-18T07:24:53.855Z,21.16
2023-03-18T07:26:55.290Z,21.15
2023-03-18T07:28:56.892Z,21.16
2023-03-18T07:30:58.275Z,21.17
2023-03-18T07:32:59.882Z,21.18
2023-03-18T07:35:03.027Z,21.25
2023-03-18T07:37:04.368Z,21.33
2023-03-18T07:39:05.770Z,21.36
2023-03-18T07:41:07.357Z,21.37
2023-03-18T07:43:09.228Z,21.39
2023-03-18T07:45:10.589Z,21.40
2023-03-18T07:47:12.086Z,20.60
2023-03-18T07:49:13.384Z,21.50
2023-03-18T07:51:15.538Z,21.54
2023-03-18T07:53:16.997Z,21.60
2023-03-18T07:55:18.337Z,21.61
2023-03-18T07:57:19.692Z,21.68
2023-03-18T07:59:21.038Z,21.75
2023-03-18T08:01:22.337Z,21.86
2023-03-18T08:03:23.731Z,21.97
2023-03-18T08:05:25.463Z,21.92
2023-03-18T08:07:26.852Z,22.01
2023-03-18T08:09:28.192Z,21.92
2023-03-18T08:11:29.523Z,21.89
2023-03-18T08:13:30.952Z,22.08
2023-03-18T08:15:32.448Z,22.12
2023-03-18T08:17:33.825Z,21.96
2023-03-18T08:19:35.677Z,21.85
2023-03-18T08:21:37.032Z,21.76
2023-03-18T08:23:38.620Z,21.74
2023-03-18T08:25:39.920Z,21.73
2023-03-18T08:27:41.351Z,21.74
2023-03-18T08:29:42.856Z,21.75
2023-03-18T08:31:44.342Z,21.72
2023-03-18T08:33:46.246Z,21.70
2023-03-18T08:35:47.616Z,21.70
2023-03-18T08:37:51.242Z,21.70
2023-03-18T08:39:52.648Z,21.69
2023-03-18T08:41:53.960Z,21.71
2023-03-18T08:43:57.364Z,21.72
2023-03-18T08:45:58.908Z,21.70
2023-03-18T08:48:00.302Z,21.70
2023-03-18T08:50:01.628Z,21.69
2023-03-18T08:52:03.117Z,21.68
2023-03-18T08:54:04.429Z,21.64
2023-03-18T08:56:06.980Z,21.64
2023-03-18T08:58:08.343Z,21.61
2023-03-18T09:00:10.054Z,21.58
2023-03-18T09:02:11.371Z,21.54
2023-03-18T09:04:13.210Z,21.58
2023-03-18T09:06:14.708Z,21.58
2023-03-18T09:08:16.044Z,21.50
2023-03-18T09:10:18.283Z,21.45
2023-03-18T09:12:20.021Z,21.44
2023-03-18T09:14:21.383Z,21.43
2023-03-18T09:16:23.022Z,21.43
2023-03-18T09:18:24.984Z,21.45
2023-03-18T09:20:26.503Z,21.48
2023-03-18T09:22:27.871Z,21.51
2023-03-18T09:24:29.166Z,21.58
2023-03-18T09:26:30.456Z,21.67
2023-03-18T09:28:32.043Z,21.73
2023-03-18T09:30:33.794Z,21.80
2023-03-18T09:32:35.312Z,21.90
2023-03-18T09:34:36.663Z,21.96
2023-03-18T09:36:38.088Z,22.00
2023-03-18T09:38:39.412Z,22.02
2023-03-18T09:40:40.708Z,22.02
2023-03-18T09:42:42.205Z,22.05
2023-03-18T09:44:43.686Z,22.08
2023-03-18T09:46:45.155Z,22.11
2023-03-18T09:48:46.765Z,22.08
2023-03-18T09:50:48.624Z,22.03
2023-03-18T09:52:50.168Z,21.99
2023-03-18T09:54:51.676Z,21.96
2023-03-18T09:56:53.031Z,21.99
2023-03-18T09:58:54.607Z,22.01
2023-03-18T10:00:56.244Z,22.01
2023-03-18T10:02:57.606Z,21.94
2023-03-18T10:04:58.948Z,21.90
2023-03-18T10:07:00.283Z,21.91
2023-03-18T10:09:02.087Z,21.92
2023-03-18T10:11:03.395Z,21.92
2023-03-18T10:13:04.729Z,21.91
2023-03-18T10:15:06.827Z,21.34
2023-03-18T10:17:09.390Z,21.94
2023-03-18T10:19:10.749Z,21.96
2023-03-18T10:21:12.049Z,21.96
2023-03-18T10:23:13.540Z,21.94
2023-03-18T10:25:15.038Z,21.93
2023-03-18T10:27:17.651Z,21.91
2023-03-18T10:29:19.331Z,21.86
2023-03-18T10:31:21.110Z,21.82
2023-03-18T10:33:22.845Z,21.79
2023-03-18T10:35:24.164Z,21.76
2023-03-18T10:37:25.775Z,20.04
2023-03-18T10:39:27.081Z,21.69
2023-03-18T10:41:28.862Z,21.69
2023-03-18T10:43:30.558Z,21.66
2023-03-18T10:45:32.732Z,21.63
2023-03-18T10:47:34.924Z,21.63
2023-03-18T10:49:36.348Z,21.63
2023-03-18T10:51:37.664Z,21.65
2023-03-18T10:53:39.104Z,21.65
2023-03-18T10:55:40.589Z,21.63
2023-03-18T10:57:42.306Z,21.68
2023-03-18T10:59:45.435Z,21.70
2023-03-18T11:01:47.016Z,21.75
2023-03-18T11:03:48.368Z,21.83
2023-03-18T11:05:49.691Z,21.87
2023-03-18T11:07:52.516Z,21.94
2023-03-18T11:09:53.835Z,22.01
2023-03-18T11:11:55.173Z,21.98
2023-03-18T11:13:57.033Z,21.99
2023-03-18T11:15:58.676Z,22.00
2023-03-18T11:18:00.043Z,21.99
2023-03-18T11:20:02.166Z,21.94
2023-03-18T11:22:04.551Z,21.89
2023-03-18T11:24:10.533Z,21.82
2023-03-18T11:26:11.902Z,21.79
2023-03-18T11:28:13.402Z,21.79
2023-03-18T11:30:21.437Z,21.80
2023-03-18T11:32:29.302Z,21.77
2023-03-18T11:34:30.652Z,21.73
2023-03-18T11:36:32.989Z,21.05
2023-03-18T11:38:34.291Z,19.63
2023-03-18T11:40:35.836Z,20.53
2023-03-18T11:42:38.014Z,21.18
2023-03-18T11:44:39.338Z,21.44
2023-03-18T11:46:40.747Z,21.57
2023-03-18T11:48:42.096Z,21.63
2023-03-18T11:50:43.387Z,21.68
2023-03-18T11:52:44.681Z,21.71
2023-03-18T11:54:46.259Z,21.76
2023-03-18T11:56:47.563Z,21.79
2023-03-18T11:58:48.944Z,21.78
2023-03-18T12:00:50.413Z,21.76
2023-03-18T12:02:51.734Z,21.76
2023-03-18T12:04:53.945Z,21.75
2023-03-18T12:06:56.083Z,21.76
2023-03-18T12:08:58.110Z,21.78
2023-03-18T12:11:06.036Z,21.77
2023-03-18T12:13:10.012Z,21.76
2023-03-18T12:15:11.576Z,21.79
2023-03-18T12:17:13.819Z,21.85
2023-03-18T12:19:15.155Z,21.87
2023-03-18T12:21:16.464Z,21.90
2023-03-18T12:23:17.820Z,21.91
2023-03-18T12:25:19.148Z,21.90
2023-03-18T12:27:21.004Z,21.88
2023-03-18T12:29:22.333Z,21.86
2023-03-18T12:31:23.824Z,21.86
2023-03-18T12:33:25.184Z,21.85
2023-03-18T12:35:26.549Z,21.85
2023-03-18T12:37:31.929Z,21.82
2023-03-18T12:39:33.968Z,21.81
2023-03-18T12:41:37.236Z,21.77
2023-03-18T12:43:38.890Z,21.78
2023-03-18T12:45:40.413Z,21.78
2023-03-18T12:47:42.176Z,21.83
2023-03-18T12:49:43.625Z,21.83
2023-03-18T12:51:44.925Z,21.84
2023-03-18T12:53:46.437Z,21.86
2023-03-18T12:55:48.221Z,21.88
2023-03-18T12:57:49.554Z,21.86
2023-03-18T12:59:53.302Z,21.85
2023-03-18T13:01:54.773Z,21.78
2023-03-18T13:03:56.091Z,21.85
2023-03-18T13:05:57.391Z,21.75
2023-03-18T13:07:58.876Z,21.65
2023-03-18T13:10:00.569Z,21.50
2023-03-18T13:12:02.212Z,21.51
2023-03-18T13:14:03.540Z,21.66
2023-03-18T13:16:04.847Z,21.73
2023-03-18T13:18:06.189Z,21.76
2023-03-18T13:20:10.032Z,21.78
2023-03-18T13:22:11.469Z,21.85
2023-03-18T13:24:12.936Z,21.86
2023-03-18T13:26:14.244Z,21.88
2023-03-18T13:28:15.544Z,21.88
2023-03-18T13:30:16.888Z,21.88
2023-03-18T13:32:18.496Z,21.86
2023-03-18T13:34:19.844Z,21.78
2023-03-18T13:36:21.258Z,21.65
2023-03-18T13:38:23.317Z,21.54
2023-03-18T13:40:24.742Z,21.45
2023-03-18T13:42:26.184Z,21.42
2023-03-18T13:44:27.772Z,21.34
2023-03-18T13:46:29.120Z,21.30
2023-03-18T13:48:30.601Z,21.27
2023-03-18T13:50:32.344Z,21.26
2023-03-18T13:52:33.689Z,21.27
2023-03-18T13:54:35.021Z,21.29
2023-03-18T13:56:36.634Z,21.33
2023-03-18T13:58:37.929Z,21.35
2023-03-18T14:00:40.459Z,21.38
2023-03-18T14:02:42.639Z,21.41
2023-03-18T14:04:44.112Z,21.43
2023-03-18T14:06:46.372Z,21.48
2023-03-18T14:08:48.217Z,21.52
2023-03-18T14:10:49.534Z,21.55
2023-03-18T14:12:51.044Z,21.59
2023-03-18T14:14:53.778Z,21.59
2023-03-18T14:16:55.120Z,21.58
2023-03-18T14:18:57.616Z,21.57
2023-03-18T14:20:58.916Z,21.55
2023-03-18T14:23:00.244Z,21.52
2023-03-18T14:25:01.968Z,21.55
2023-03-18T14:27:06.856Z,21.61
2023-03-18T14:29:09.573Z,21.61
2023-03-18T14:31:10.902Z,21.60
2023-03-18T14:33:12.988Z,21.58
2023-03-18T14:35:14.411Z,21.55
2023-03-18T14:37:16.216Z,21.52
2023-03-18T14:39:17.959Z,21.46
2023-03-18T14:41:19.588Z,21.47
2023-03-18T14:43:20.879Z,21.45
2023-03-18T14:45:22.327Z,21.48
2023-03-18T14:47:38.179Z,21.49
2023-03-18T14:49:40.476Z,21.46
2023-03-18T14:51:42.390Z,21.45
2023-03-18T14:53:47.479Z,21.43
2023-03-18T14:55:49.859Z,21.42
2023-03-18T14:57:52.679Z,21.45
2023-03-18T14:59:53.987Z,21.45
2023-03-18T15:01:55.606Z,21.46
2023-03-18T15:03:57.094Z,21.46
2023-03-18T15:05:58.740Z,21.44
2023-03-18T15:08:00.144Z,21.39
2023-03-18T15:10:01.444Z,21.37
2023-03-18T15:12:02.780Z,21.32
2023-03-18T15:14:04.112Z,21.29
2023-03-18T15:16:05.525Z,21.25
2023-03-18T15:18:06.876Z,21.27
2023-03-18T15:20:08.215Z,21.30
2023-03-18T15:22:09.565Z,21.30
2023-03-18T15:24:11.572Z,21.30
2023-03-18T15:26:13.444Z,21.32
2023-03-18T15:28:15.151Z,21.35
2023-03-18T15:30:16.641Z,21.34
2023-03-18T15:32:17.996Z,21.35
2023-03-18T15:34:19.300Z,21.33
2023-03-18T15:36:20.941Z,21.27
2023-03-18T15:38:22.288Z,21.21
2023-03-18T15:40:23.638Z,21.13
2023-03-18T15:42:25.111Z,21.09
2023-03-18T15:44:26.471Z,21.07
2023-03-18T15:46:27.836Z,21.01
2023-03-18T15:48:29.745Z,20.92
2023-03-18T15:50:31.737Z,20.56
2023-03-18T15:52:39.273Z,20.73
2023-03-18T15:54:40.562Z,20.77
2023-03-18T15:56:41.857Z,20.75
2023-03-18T15:58:44.782Z,20.80
2023-03-18T16:00:46.105Z,20.80
2023-03-18T16:02:47.508Z,20.79
2023-03-18T16:04:48.911Z,20.75
2023-03-18T16:06:50.207Z,20.71
2023-03-18T16:08:54.556Z,20.66
2023-03-18T16:10:56.009Z,20.61
2023-03-18T16:12:57.939Z,20.56
2023-03-18T16:14:59.275Z,20.50
2023-03-18T16:17:00.647Z,20.45
2023-03-18T16:19:02.160Z,20.43
2023-03-18T16:21:03.509Z,20.43
2023-03-18T16:23:05.588Z,20.43
2023-03-18T16:25:07.827Z,20.45
2023-03-18T16:27:09.127Z,20.48
2023-03-18T16:29:10.415Z,20.49
2023-03-18T16:31:12.060Z,20.55
2023-03-18T16:33:19.798Z,20.57
2023-03-18T16:35:21.109Z,19.78
2023-03-18T16:37:25.760Z,20.65
2023-03-18T16:39:28.866Z,20.68
2023-03-18T16:41:30.468Z,20.69
2023-03-18T16:43:31.843Z,20.69
2023-03-18T16:45:33.574Z,20.65
2023-03-18T16:47:35.079Z,20.61
2023-03-18T16:49:37.330Z,20.55
2023-03-18T16:51:38.624Z,20.48
2023-03-18T16:53:39.959Z,20.47
2023-03-18T16:55:44.288Z,20.44
2023-03-18T16:57:45.723Z,20.47
2023-03-18T16:59:47.932Z,20.52
2023-03-18T17:01:49.234Z,20.57
2023-03-18T17:03:51.934Z,20.62
2023-03-18T17:05:56.487Z,20.67
2023-03-18T17:07:57.864Z,20.70
2023-03-18T17:10:02.188Z,20.76
2023-03-18T17:12:04.007Z,20.79
2023-03-18T17:14:05.976Z,20.81
2023-03-18T17:16:07.311Z,20.84
2023-03-18T17:18:09.448Z,21.27
2023-03-18T17:20:11.601Z,21.78
2023-03-18T17:22:12.926Z,22.18
2023-03-18T17:24:14.257Z,22.24
2023-03-18T17:26:15.693Z,22.28
2023-03-18T17:28:17.138Z,22.29
2023-03-18T17:30:21.444Z,22.43
2023-03-18T17:32:22.745Z,22.31
2023-03-18T17:34:24.153Z,22.16
2023-03-18T17:36:25.463Z,22.13
2023-03-18T17:38:26.804Z,22.16
2023-03-18T17:40:31.714Z,22.16
2023-03-18T17:42:33.037Z,22.19
2023-03-18T17:44:34.328Z,22.23
2023-03-18T17:46:35.752Z,22.19
2023-03-18T17:48:37.060Z,22.22
2023-03-18T17:50:38.407Z,22.00
2023-03-18T17:52:39.706Z,21.74
2023-03-18T17:54:41.033Z,21.58
2023-03-18T17:56:42.360Z,21.49
2023-03-18T17:58:44.487Z,21.58
2023-03-18T18:00:46.406Z,22.00
2023-03-18T18:02:47.767Z,22.19
2023-03-18T18:04:49.181Z,22.24
2023-03-18T18:06:50.525Z,22.56
2023-03-18T18:08:51.982Z,22.71
2023-03-18T18:10:53.318Z,22.56
2023-03-18T18:12:54.662Z,22.43
2023-03-18T18:14:55.961Z,22.64
2023-03-18T18:16:57.301Z,22.55
2023-03-18T18:18:59.076Z,22.53
2023-03-18T18:21:00.390Z,22.50
2023-03-18T18:23:03.095Z,22.46
2023-03-18T18:25:04.698Z,22.97
2023-03-18T18:27:06.040Z,23.53
2023-03-18T18:29:08.288Z,22.62
2023-03-18T18:31:09.724Z,22.06
2023-03-18T18:33:11.496Z,21.74
2023-03-18T18:35:15.978Z,21.53
2023-03-18T18:37:17.963Z,21.40
2023-03-18T18:39:19.625Z,21.82
2023-03-18T18:41:23.966Z,21.97
2023-03-18T18:43:25.297Z,21.90
2023-03-18T18:45:28.222Z,21.61
2023-03-18T18:47:29.530Z,21.44
2023-03-18T18:49:30.956Z,21.36
2023-03-18T18:51:32.557Z,21.32
2023-03-18T18:53:35.741Z,21.31
2023-03-18T18:55:37.100Z,21.27
2023-03-18T18:57:38.415Z,21.26
2023-03-18T18:59:39.743Z,21.26
2023-03-18T19:01:41.056Z,21.26
2023-03-18T19:03:45.281Z,21.26
2023-03-18T19:05:46.581Z,21.27
2023-03-18T19:07:47.878Z,21.26
2023-03-18T19:09:49.645Z,22.07
2023-03-18T19:11:56.818Z,22.10
2023-03-18T19:13:58.690Z,22.33
2023-03-18T19:16:03.048Z,22.55
2023-03-18T19:18:06.567Z,22.42
2023-03-18T19:20:07.911Z,22.39
2023-03-18T19:22:09.443Z,22.41
2023-03-18T19:24:10.832Z,22.81
2023-03-18T19:26:12.319Z,22.89
2023-03-18T19:28:13.653Z,21.86
2023-03-18T19:30:16.605Z,22.55
2023-03-18T19:32:20.805Z,22.51
2023-03-18T19:34:22.159Z,22.63
2023-03-18T19:36:23.685Z,22.73
2023-03-18T19:38:24.977Z,22.63
2023-03-18T19:42:30.960Z,22.57
2023-03-18T19:44:32.258Z,23.27
2023-03-18T19:46:36.013Z,23.38
2023-03-18T19:48:37.356Z,23.32
2023-03-18T19:50:38.649Z,22.83
2023-03-18T19:52:40.035Z,22.57
2023-03-18T19:54:41.564Z,22.45
2023-03-18T19:56:42.865Z,22.42
2023-03-18T19:58:44.186Z,22.44
2023-03-18T20:00:45.603Z,22.19
2023-03-18T20:02:49.181Z,21.95
2023-03-18T20:04:50.632Z,21.84
2023-03-18T20:06:52.079Z,22.46
2023-03-18T20:09:02.154Z,22.75
2023-03-18T20:11:03.447Z,22.58
2023-03-18T20:13:04.780Z,22.42
2023-03-18T20:15:06.084Z,22.31
2023-03-18T20:17:09.013Z,23.12
2023-03-18T20:19:11.459Z,23.18
2023-03-18T20:21:12.760Z,22.88
2023-03-18T20:23:14.060Z,22.59
2023-03-18T20:25:15.624Z,22.51
2023-03-18T20:27:17.492Z,22.65
2023-03-18T20:29:19.087Z,22.48
2023-03-18T20:31:20.757Z,22.36
2023-03-18T20:33:22.587Z,22.38
2023-03-18T20:35:23.880Z,22.46
2023-03-18T20:37:25.266Z,22.49
2023-03-18T20:39:29.773Z,22.50
2023-03-18T20:41:31.127Z,22.51
2023-03-18T20:43:35.352Z,22.49
2023-03-18T20:45:36.692Z,22.50
2023-03-18T20:47:38.011Z,22.51
2023-03-18T20:49:43.764Z,22.46
2023-03-18T20:51:45.627Z,22.39
2023-03-18T20:53:46.959Z,22.08
2023-03-18T20:55:48.270Z,21.83
2023-03-18T20:57:49.662Z,22.44
2023-03-18T20:59:51.649Z,22.93
2023-03-18T21:01:53.017Z,22.88
2023-03-18T21:03:54.335Z,22.65
2023-03-18T21:05:59.046Z,22.68
2023-03-18T21:08:03.200Z,22.98
2023-03-18T21:10:04.514Z,23.23
2023-03-18T21:12:06.015Z,23.61
2023-03-18T21:14:07.330Z,23.84
2023-03-18T21:16:08.624Z,23.72
2023-03-18T21:18:09.916Z,23.53
2023-03-18T21:20:21.825Z,23.35
2023-03-18T21:22:24.003Z,22.61
2023-03-18T21:24:25.364Z,22.27
2023-03-18T21:26:26.693Z,22.41
2023-03-18T21:28:28.020Z,22.38
2023-03-18T21:30:29.440Z,22.42
2023-03-18T21:32:33.614Z,22.42
2023-03-18T21:34:35.007Z,22.38
2023-03-18T21:36:42.119Z,22.35
2023-03-18T21:38:43.420Z,22.32
2023-03-18T21:40:44.761Z,22.31
2023-03-18T21:42:46.612Z,22.34
2023-03-18T21:44:48.116Z,22.42
2023-03-18T21:46:49.411Z,22.51
2023-03-18T21:48:51.325Z,22.40
2023-03-18T21:50:52.633Z,22.43
2023-03-18T21:52:53.958Z,22.31
2023-03-18T21:54:55.383Z,22.00
2023-03-18T21:56:56.681Z,21.82
2023-03-18T21:58:57.981Z,19.63
2023-03-18T22:00:59.327Z,18.35
2023-03-18T22:03:00.637Z,19.44
2023-03-18T22:05:01.994Z,20.35
2023-03-18T22:07:03.396Z,21.10
2023-03-18T22:09:04.787Z,21.49
2023-03-18T22:11:09.604Z,21.69
2023-03-18T22:13:10.903Z,21.84
2023-03-18T22:15:12.215Z,21.93
2023-03-18T22:17:13.519Z,22.03
2023-03-18T22:19:14.849Z,22.13
2023-03-18T22:21:16.190Z,22.23
2023-03-18T22:23:17.544Z,22.32
2023-03-18T22:25:18.879Z,22.40
2023-03-18T22:27:20.292Z,22.22
2023-03-18T22:29:24.218Z,22.32
2023-03-18T22:31:25.621Z,22.50
2023-03-18T22:33:27.019Z,22.56
2023-03-18T22:35:28.395Z,22.64
2023-03-18T22:37:29.822Z,22.70
2023-03-18T22:39:31.125Z,22.67
2023-03-18T22:41:32.490Z,22.70
2023-03-18T22:43:34.813Z,22.67
2023-03-18T22:45:38.054Z,22.70
2023-03-18T22:47:40.361Z,22.72
2023-03-18T22:49:41.696Z,22.68
2023-03-18T22:51:44.777Z,22.67
2023-03-18T22:53:46.096Z,22.70
2023-03-18T22:55:47.446Z,22.72
2023-03-18T22:57:48.889Z,23.26
2023-03-18T22:59:50.288Z,22.88
2023-03-18T23:01:51.659Z,22.67
2023-03-18T23:03:53.090Z,22.60
2023-03-18T23:05:54.490Z,21.37
2023-03-18T23:07:55.828Z,18.35
2023-03-18T23:10:00.336Z,17.29
2023-03-18T23:12:01.676Z,16.76
2023-03-18T23:14:03.615Z,16.80
2023-03-18T23:16:05.281Z,18.35
2023-03-18T23:18:06.714Z,19.63
2023-03-18T23:20:08.462Z,20.30
2023-03-18T23:22:09.760Z,20.61
2023-03-18T23:24:11.076Z,20.79
2023-03-18T23:26:12.420Z,20.93
2023-03-18T23:28:13.902Z,21.05
2023-03-18T23:30:15.298Z,21.16
2023-03-18T23:32:16.588Z,21.25
2023-03-18T23:34:18.023Z,21.36
2023-03-18T23:36:19.375Z,21.46
2023-03-18T23:38:20.892Z,21.52
2023-03-18T23:40:22.223Z,21.55
2023-03-18T23:42:23.552Z,21.62
2023-03-18T23:44:25.684Z,21.64
2023-03-18T23:46:27.044Z,21.68
2023-03-18T23:48:28.373Z,21.66
2023-03-18T23:50:29.672Z,21.69
2023-03-18T23:52:31.353Z,21.72
2023-03-18T23:54:34.069Z,21.73
2023-03-18T23:56:35.367Z,21.74
2023-03-18T23:58:36.678Z,21.73
